createdAt,value
2017-11-19T00:00:39.943Z,6.20
2017-11-19T00:03:06.215Z,6.40
2017-11-19T00:05:33.135Z,6.70
2017-11-19T00:07:59.721Z,6.80
2017-11-19T00:10:27.364Z,7.00
2017-11-19T00:12:54.499Z,7.10
2017-11-19T00:15:20.744Z,7.00
2017-11-19T00:17:46.960Z,6.90
2017-11-19T00:20:13.973Z,6.90
2017-11-19T00:22:41.643Z,6.80
2017-11-19T00:25:09.358Z,6.80
2017-11-19T00:27:37.014Z,6.80
2017-11-19T00:30:03.729Z,6.60
2017-11-19T00:32:30.353Z,6.50
2017-11-19T00:34:56.583Z,6.50
2017-11-19T00:37:24.601Z,6.40
2017-11-19T00:39:50.860Z,6.40
2017-11-19T00:42:18.064Z,6.40
2017-11-19T00:44:46.120Z,6.30
2017-11-19T00:47:14.049Z,6.30
2017-11-19T00:49:40.275Z,6.40
2017-11-19T00:52:16.202Z,6.40
2017-11-19T00:54:47.900Z,6.50
2017-11-19T00:57:15.035Z,6.30
2017-11-19T00:59:41.701Z,6.30
2017-11-19T01:02:10.287Z,6.20
2017-11-19T01:04:37.266Z,6.20
2017-11-19T01:07:03.436Z,6.10
2017-11-19T01:09:30.567Z,6.10
2017-11-19T01:11:59.929Z,6.20
2017-11-19T01:14:26.718Z,6.10
2017-11-19T01:16:55.322Z,6.10
2017-11-19T01:19:22.275Z,6.00
2017-11-19T01:21:48.545Z,6.00
2017-11-19T01:24:15.105Z,5.90
2017-11-19T01:26:41.759Z,5.90
2017-11-19T01:29:09.075Z,5.90
2017-11-19T01:31:36.044Z,6.00
2017-11-19T01:34:02.261Z,5.90
2017-11-19T01:36:29.224Z,6.20
2017-11-19T01:41:23.814Z,6.00
2017-11-19T01:43:53.105Z,5.80
2017-11-19T01:46:20.077Z,5.80
2017-11-19T01:48:46.925Z,5.90
2017-11-19T01:51:13.167Z,5.80
2017-11-19T01:53:39.766Z,5.80
2017-11-19T01:56:06.695Z,5.90
2017-11-19T01:58:33.784Z,6.00
2017-11-19T02:01:00.129Z,6.00
2017-11-19T02:03:27.473Z,6.10
2017-11-19T02:05:55.368Z,6.10
2017-11-19T02:08:21.965Z,6.10
2017-11-19T02:10:48.879Z,6.10
2017-11-19T02:13:16.245Z,6.10
2017-11-19T02:15:43.210Z,6.10
2017-11-19T02:18:10.554Z,6.10
2017-11-19T02:20:37.502Z,6.00
2017-11-19T02:23:04.143Z,6.00
2017-11-19T02:25:34.343Z,6.00
2017-11-19T02:28:00.910Z,5.80
2017-11-19T02:30:27.952Z,6.00
2017-11-19T02:32:54.286Z,6.00
2017-11-19T02:35:23.424Z,6.10
2017-11-19T02:50:54.730Z,3.30
2017-11-19T02:53:22.548Z,6.30
2017-11-19T02:55:49.628Z,6.40
2017-11-19T02:58:16.558Z,6.20
2017-11-19T03:00:43.544Z,6.30
2017-11-19T03:03:12.172Z,6.30
2017-11-19T03:05:39.133Z,6.30
2017-11-19T03:08:06.092Z,6.50
2017-11-19T03:10:33.090Z,6.60
2017-11-19T03:12:59.288Z,6.70
2017-11-19T03:15:25.465Z,6.80
2017-11-19T03:17:51.719Z,6.70
2017-11-19T03:20:18.753Z,6.70
2017-11-19T03:22:44.987Z,6.60
2017-11-19T03:25:11.174Z,6.70
2017-11-19T03:27:37.361Z,6.70
2017-11-19T03:30:04.327Z,6.80
2017-11-19T03:32:30.552Z,6.70
2017-11-19T03:34:56.761Z,6.80
2017-11-19T03:37:24.029Z,6.80
2017-11-19T03:39:50.186Z,6.90
2017-11-19T03:42:17.222Z,7.00
2017-11-19T03:44:44.575Z,7.30
2017-11-19T03:47:11.788Z,7.40
2017-11-19T03:49:38.733Z,7.20
2017-11-19T03:52:04.963Z,6.90
2017-11-19T03:54:31.941Z,6.60
2017-11-19T03:56:59.056Z,6.50
2017-11-19T03:59:26.045Z,6.30
2017-11-19T04:01:56.633Z,6.20
2017-11-19T04:04:22.880Z,6.20
2017-11-19T04:06:49.801Z,6.10
2017-11-19T04:09:16.765Z,6.00
2017-11-19T04:11:43.648Z,6.00
2017-11-19T04:14:10.514Z,5.90
2017-11-19T04:16:37.316Z,5.90
2017-11-19T04:19:03.593Z,5.90
2017-11-19T04:21:30.659Z,5.80
2017-11-19T04:23:57.781Z,5.80
2017-11-19T04:26:26.360Z,5.90
2017-11-19T04:28:52.667Z,5.80
2017-11-19T04:31:18.819Z,5.80
2017-11-19T04:33:45.940Z,5.80
2017-11-19T04:36:12.863Z,5.70
2017-11-19T04:38:42.585Z,5.60
2017-11-19T04:41:11.180Z,5.70
2017-11-19T04:43:38.295Z,5.60
2017-11-19T04:46:04.483Z,5.70
2017-11-19T04:48:34.290Z,5.70
2017-11-19T04:51:03.193Z,5.70
2017-11-19T04:53:30.354Z,5.70
2017-11-19T04:55:56.555Z,5.70
2017-11-19T04:58:22.756Z,5.70
2017-11-19T05:00:50.336Z,5.80
2017-11-19T05:03:17.562Z,5.60
2017-11-19T05:05:44.476Z,5.60
2017-11-19T05:08:14.095Z,5.70
2017-11-19T05:10:41.605Z,5.70
2017-11-19T05:13:07.798Z,5.70
2017-11-19T05:15:35.317Z,5.70
2017-11-19T05:18:03.031Z,5.70
2017-11-19T05:20:31.004Z,5.60
2017-11-19T05:22:57.953Z,5.50
2017-11-19T05:25:25.890Z,5.50
2017-11-19T05:27:53.357Z,5.50
2017-11-19T05:30:22.541Z,5.40
2017-11-19T05:32:50.502Z,5.50
2017-11-19T05:35:16.789Z,5.40
2017-11-19T05:37:44.379Z,5.30
2017-11-19T05:40:11.630Z,5.40
2017-11-19T05:42:53.344Z,5.30
2017-11-19T05:45:19.700Z,5.20
2017-11-19T05:47:47.580Z,5.20
2017-11-19T05:50:13.767Z,5.20
2017-11-19T05:52:41.174Z,5.20
2017-11-19T05:55:09.495Z,5.20
2017-11-19T05:57:36.574Z,5.20
2017-11-19T06:00:02.866Z,5.20
2017-11-19T06:02:30.378Z,5.30
2017-11-19T06:14:43.452Z,5.30
2017-11-19T06:17:11.612Z,5.20
2017-11-19T06:19:38.600Z,5.30
2017-11-19T06:22:06.658Z,5.30
2017-11-19T06:24:33.570Z,5.30
2017-11-19T06:27:02.305Z,5.20
2017-11-19T06:29:29.234Z,5.20
2017-11-19T06:31:57.450Z,5.30
2017-11-19T06:34:23.641Z,5.20
2017-11-19T06:36:51.450Z,5.10
2017-11-19T06:39:18.186Z,5.20
2017-11-19T06:41:44.332Z,5.20
2017-11-19T06:44:13.064Z,5.10
2017-11-19T06:46:42.292Z,5.10
2017-11-19T06:49:09.544Z,5.10
2017-11-19T06:51:35.740Z,5.10
2017-11-19T06:54:02.689Z,5.10
2017-11-19T06:56:29.806Z,5.10
2017-11-19T06:58:56.110Z,5.10
2017-11-19T07:01:23.643Z,5.10
2017-11-19T07:03:50.995Z,5.10
2017-11-19T07:06:19.052Z,5.10
2017-11-19T07:08:46.632Z,5.00
2017-11-19T07:11:13.933Z,5.10
2017-11-19T07:13:40.157Z,5.00
2017-11-19T07:16:06.392Z,5.00
2017-11-19T07:18:37.460Z,5.00
2017-11-19T07:21:03.921Z,5.10
2017-11-19T07:23:32.756Z,5.10
2017-11-19T07:26:02.426Z,5.20
2017-11-19T07:28:29.115Z,5.20
2017-11-19T07:30:55.402Z,5.20
2017-11-19T07:33:23.943Z,5.20
2017-11-19T07:35:50.572Z,5.30
2017-11-19T07:38:18.181Z,5.30
2017-11-19T07:40:45.037Z,5.40
2017-11-19T07:43:11.233Z,5.40
2017-11-19T07:45:39.941Z,5.40
2017-11-19T07:48:09.402Z,5.40
2017-11-19T07:50:35.744Z,5.60
2017-11-19T07:53:03.533Z,5.70
2017-11-19T07:55:30.740Z,5.80
2017-11-19T07:57:56.974Z,6.00
2017-11-19T08:00:26.468Z,6.10
2017-11-19T08:02:53.473Z,6.10
2017-11-19T08:05:20.618Z,6.10
2017-11-19T08:07:48.321Z,6.20
2017-11-19T08:10:17.211Z,6.10
2017-11-19T08:12:43.387Z,6.10
2017-11-19T08:15:11.736Z,6.00
2017-11-19T08:17:39.438Z,6.00
2017-11-19T08:20:06.421Z,6.10
2017-11-19T08:22:34.093Z,6.20
2017-11-19T08:25:00.296Z,6.10
2017-11-19T08:27:27.142Z,6.10
2017-11-19T08:29:53.952Z,6.00
2017-11-19T08:32:22.660Z,6.00
2017-11-19T08:34:50.659Z,5.90
2017-11-19T08:37:20.276Z,5.90
2017-11-19T08:39:50.169Z,5.90
2017-11-19T08:42:17.221Z,5.90
2017-11-19T08:44:43.421Z,5.90
2017-11-19T08:47:11.144Z,5.90
2017-11-19T08:49:39.373Z,6.00
2017-11-19T08:52:05.603Z,6.20
2017-11-19T09:04:23.507Z,6.40
2017-11-19T09:06:52.605Z,6.80
2017-11-19T09:09:21.220Z,6.90
2017-11-19T09:11:50.047Z,7.00
2017-11-19T09:14:16.413Z,6.90
2017-11-19T09:16:43.256Z,6.70
2017-11-19T09:19:10.451Z,6.80
2017-11-19T09:21:38.377Z,6.90
2017-11-19T09:24:05.093Z,6.90
2017-11-19T09:26:33.198Z,7.10
2017-11-19T09:28:59.439Z,7.10
2017-11-19T09:31:28.964Z,7.20
2017-11-19T09:33:58.528Z,7.30
2017-11-19T09:36:26.969Z,7.50
2017-11-19T09:38:57.595Z,7.70
2017-11-19T09:41:24.543Z,7.90
2017-11-19T09:43:50.791Z,8.10
2017-11-19T09:46:17.766Z,8.00
2017-11-19T09:48:44.626Z,7.70
2017-11-19T09:51:10.826Z,7.60
2017-11-19T09:56:08.923Z,7.60
2017-11-19T09:58:43.687Z,7.40
2017-11-19T10:01:12.471Z,7.50
2017-11-19T10:03:38.647Z,7.40
2017-11-19T10:06:06.063Z,7.40
2017-11-19T10:08:32.863Z,7.40
2017-11-19T10:11:02.483Z,7.60
2017-11-19T10:13:29.556Z,7.80
2017-11-19T10:16:03.209Z,7.80
2017-11-19T10:18:30.909Z,7.80
2017-11-19T10:20:57.107Z,8.00
2017-11-19T10:23:27.090Z,8.10
2017-11-19T10:25:58.317Z,8.00
2017-11-19T10:28:26.001Z,7.90
2017-11-19T10:31:02.467Z,8.10
2017-11-19T10:33:29.507Z,8.20
2017-11-19T10:35:58.014Z,8.50
2017-11-19T10:38:28.478Z,8.50
2017-11-19T10:40:55.467Z,8.40
2017-11-19T10:43:21.644Z,8.40
2017-11-19T10:45:48.582Z,8.80
2017-11-19T10:48:16.626Z,9.10
2017-11-19T10:50:42.839Z,9.40
2017-11-19T10:53:11.302Z,9.50
2017-11-19T10:55:37.592Z,9.50
2017-11-19T10:58:04.539Z,9.10
2017-11-19T11:00:31.522Z,9.10
2017-11-19T11:02:57.709Z,9.10
2017-11-19T11:05:24.209Z,8.90
2017-11-19T11:07:50.475Z,9.20
2017-11-19T11:10:18.136Z,10.10
2017-11-19T11:12:45.358Z,10.70
2017-11-19T11:15:11.592Z,11.10
2017-11-19T11:17:37.835Z,11.00
2017-11-19T11:20:04.709Z,11.50
2017-11-19T11:22:31.670Z,12.10
2017-11-19T11:24:58.049Z,12.60
2017-11-19T11:27:24.689Z,12.90
2017-11-19T11:29:52.032Z,12.70
2017-11-19T11:32:18.290Z,12.30
2017-11-19T11:34:44.561Z,11.80
2017-11-19T11:37:10.829Z,11.30
2017-11-19T11:39:37.896Z,11.00
2017-11-19T11:42:04.125Z,10.60
2017-11-19T11:44:31.089Z,10.60
2017-11-19T11:46:57.692Z,10.70
2017-11-19T11:49:23.962Z,10.50
2017-11-19T11:51:50.899Z,10.70
2017-11-19T11:54:17.930Z,10.60
2017-11-19T11:56:45.632Z,10.40
2017-11-19T11:59:11.884Z,10.10
2017-11-19T12:01:38.965Z,9.90
2017-11-19T12:04:06.337Z,9.60
2017-11-19T12:06:33.499Z,9.40
2017-11-19T12:09:01.314Z,9.20
2017-11-19T12:11:27.545Z,9.00
2017-11-19T12:13:54.892Z,9.00
2017-11-19T12:16:21.098Z,8.80
2017-11-19T12:18:47.715Z,8.70
2017-11-19T12:21:14.708Z,8.60
2017-11-19T12:23:40.997Z,8.80
2017-11-19T12:26:07.534Z,8.80
2017-11-19T12:28:33.809Z,8.40
2017-11-19T12:31:00.776Z,8.70
2017-11-19T12:33:29.089Z,8.70
2017-11-19T12:35:56.109Z,9.00
2017-11-19T12:38:22.390Z,9.20
2017-11-19T12:40:52.278Z,9.40
2017-11-19T12:43:19.202Z,9.30
2017-11-19T12:45:47.316Z,9.40
2017-11-19T12:48:13.603Z,9.60
2017-11-19T12:50:39.849Z,9.80
2017-11-19T12:53:06.836Z,10.00
2017-11-19T12:55:33.082Z,10.20
2017-11-19T12:57:59.804Z,10.40
2017-11-19T13:00:26.224Z,10.40
2017-11-19T13:02:52.453Z,9.60
2017-11-19T13:05:22.095Z,9.20
2017-11-19T13:07:48.406Z,9.00
2017-11-19T13:10:14.605Z,8.70
2017-11-19T13:12:41.565Z,8.50
2017-11-19T13:15:08.603Z,8.40
2017-11-19T13:17:35.543Z,8.40
2017-11-19T13:20:02.222Z,8.30
2017-11-19T13:22:28.531Z,8.10
2017-11-19T13:24:56.892Z,7.90
2017-11-19T13:27:23.881Z,7.70
2017-11-19T13:29:50.489Z,7.60
2017-11-19T13:32:18.590Z,7.60
2017-11-19T13:34:46.303Z,7.50
2017-11-19T13:37:12.615Z,7.50
2017-11-19T13:39:40.043Z,7.30
2017-11-19T13:42:06.311Z,7.30
2017-11-19T13:44:32.522Z,7.30
2017-11-19T13:47:00.727Z,7.40
2017-11-19T13:49:27.325Z,7.40
2017-11-19T13:51:54.013Z,7.50
2017-11-19T13:54:21.491Z,7.50
2017-11-19T13:56:52.070Z,7.40
2017-11-19T13:59:18.727Z,7.30
2017-11-19T14:01:44.972Z,7.20
2017-11-19T14:04:12.199Z,7.10
2017-11-19T14:06:38.902Z,7.00
2017-11-19T14:09:07.947Z,7.00
2017-11-19T14:11:34.953Z,6.90
2017-11-19T14:14:01.136Z,6.90
2017-11-19T14:16:28.092Z,6.90
2017-11-19T14:18:58.558Z,7.00
2017-11-19T14:21:25.345Z,6.80
2017-11-19T14:23:52.441Z,7.00
2017-11-19T14:26:18.747Z,7.10
2017-11-19T14:28:47.010Z,7.10
2017-11-19T14:31:15.801Z,7.20
2017-11-19T14:33:42.728Z,7.30
2017-11-19T14:36:09.840Z,7.40
2017-11-19T14:38:36.183Z,7.40
2017-11-19T14:41:04.232Z,7.40
2017-11-19T14:43:30.568Z,7.50
2017-11-19T14:45:57.523Z,7.20
2017-11-19T14:48:23.774Z,7.30
2017-11-19T14:50:50.085Z,7.30
2017-11-19T14:53:16.352Z,7.30
2017-11-19T14:55:44.296Z,7.30
2017-11-19T14:58:11.899Z,7.30
2017-11-19T15:00:38.871Z,7.30
2017-11-19T15:03:05.119Z,7.20
2017-11-19T15:05:31.578Z,7.20
2017-11-19T15:07:58.206Z,7.30
2017-11-19T15:10:24.630Z,7.30
2017-11-19T15:12:51.228Z,7.20
2017-11-19T15:15:18.863Z,7.30
2017-11-19T15:17:48.972Z,7.30
2017-11-19T15:20:16.016Z,7.30
2017-11-19T15:22:42.361Z,7.20
2017-11-19T15:25:09.933Z,7.30
2017-11-19T15:27:37.022Z,7.20
2017-11-19T15:30:04.085Z,7.10
2017-11-19T15:32:43.137Z,7.20
2017-11-19T15:35:09.570Z,7.20
2017-11-19T15:47:21.513Z,7.10
2017-11-19T15:49:47.956Z,7.00
2017-11-19T15:52:14.660Z,7.00
2017-11-19T15:54:43.068Z,7.00
2017-11-19T15:57:09.860Z,7.00
2017-11-19T15:59:36.857Z,7.00
2017-11-19T16:02:03.330Z,7.00
2017-11-19T16:04:31.982Z,6.80
2017-11-19T16:07:00.665Z,6.80
2017-11-19T16:09:28.182Z,6.80
2017-11-19T16:11:55.067Z,6.80
2017-11-19T16:14:21.934Z,7.00
2017-11-19T16:16:48.582Z,6.90
2017-11-19T16:19:15.765Z,7.30
2017-11-19T16:34:43.122Z,7.70
2017-11-19T16:37:10.199Z,7.60
2017-11-19T16:39:36.590Z,7.50
2017-11-19T16:42:04.992Z,7.10
2017-11-19T16:44:31.362Z,7.00
2017-11-19T16:46:57.722Z,7.00
2017-11-19T16:49:25.215Z,7.00
2017-11-19T16:51:51.552Z,6.90
2017-11-19T16:54:18.543Z,6.80
2017-11-19T16:56:49.095Z,6.70
2017-11-19T16:59:16.728Z,6.80
2017-11-19T17:01:44.714Z,6.80
2017-11-19T17:04:11.745Z,6.80
2017-11-19T17:06:38.098Z,6.80
2017-11-19T17:09:06.920Z,6.80
2017-11-19T17:11:34.096Z,6.80
2017-11-19T17:14:00.404Z,6.80
2017-11-19T17:16:31.851Z,6.80
2017-11-19T17:18:58.948Z,6.80
2017-11-19T17:31:11.238Z,6.70
2017-11-19T17:33:39.172Z,6.70
2017-11-19T17:39:12.430Z,6.70
2017-11-19T17:41:39.074Z,6.70
2017-11-19T17:44:06.107Z,6.70
2017-11-19T17:49:01.369Z,6.80
2017-11-19T17:51:27.670Z,7.20
2017-11-19T17:53:54.832Z,7.40
2017-11-19T17:56:22.293Z,7.50
2017-11-19T17:58:49.224Z,7.50
2017-11-19T18:01:17.922Z,7.60
2017-11-19T18:03:44.199Z,7.60
2017-11-19T18:06:11.272Z,7.60
2017-11-19T18:08:37.731Z,7.60
2017-11-19T18:11:04.925Z,7.50
2017-11-19T18:13:32.134Z,7.40
2017-11-19T18:15:59.259Z,7.40
2017-11-19T18:18:25.889Z,7.20
2017-11-19T18:20:53.011Z,7.10
2017-11-19T18:23:19.390Z,7.00
2017-11-19T18:25:46.484Z,6.80
2017-11-19T18:28:13.195Z,6.80
2017-11-19T18:30:39.502Z,6.60
2017-11-19T18:33:05.967Z,6.50
2017-11-19T18:35:32.861Z,6.50
2017-11-19T18:37:59.915Z,6.40
2017-11-19T18:42:57.573Z,6.40
2017-11-19T18:45:23.972Z,6.40
2017-11-19T18:47:51.709Z,6.40
2017-11-19T18:50:18.465Z,6.40
2017-11-19T18:52:45.718Z,6.50
2017-11-19T18:55:12.075Z,6.50
2017-11-19T18:57:39.222Z,6.50
2017-11-19T19:00:06.142Z,6.60
2017-11-19T19:02:33.467Z,6.70
2017-11-19T19:05:01.568Z,6.70
2017-11-19T19:07:28.233Z,6.60
2017-11-19T19:09:55.911Z,6.50
2017-11-19T19:12:22.688Z,6.50
2017-11-19T19:14:49.015Z,6.70
2017-11-19T19:17:16.544Z,6.50
2017-11-19T19:19:42.782Z,6.60
2017-11-19T19:22:09.037Z,6.50
2017-11-19T19:24:38.145Z,6.50
2017-11-19T19:27:04.773Z,6.50
2017-11-19T19:29:31.741Z,6.50
2017-11-19T19:31:59.230Z,6.50
2017-11-19T19:34:25.595Z,6.50
2017-11-19T19:36:51.804Z,6.50
2017-11-19T19:39:18.077Z,6.40
2017-11-19T19:41:46.451Z,6.30
2017-11-19T19:44:13.762Z,6.30
2017-11-19T19:46:40.849Z,6.30
2017-11-19T19:49:07.854Z,6.30
2017-11-19T19:51:34.421Z,6.20
2017-11-19T19:54:00.981Z,6.20
2017-11-19T19:56:28.511Z,6.10
2017-11-19T19:58:56.268Z,6.00
2017-11-19T20:01:22.632Z,6.00
2017-11-19T20:03:49.565Z,6.00
2017-11-19T20:06:15.897Z,6.00
2017-11-19T20:11:17.199Z,6.00
2017-11-19T20:13:43.498Z,6.10
2017-11-19T20:16:10.132Z,5.90
2017-11-19T20:18:36.405Z,5.90
2017-11-19T20:21:03.502Z,5.90
2017-11-19T20:23:29.900Z,5.90
2017-11-19T20:25:56.323Z,5.80
2017-11-19T20:28:23.509Z,5.80
2017-11-19T20:30:49.839Z,5.80
2017-11-19T20:43:01.321Z,6.00
2017-11-19T20:45:28.040Z,5.90
2017-11-19T20:47:55.765Z,5.90
2017-11-19T20:50:22.131Z,5.90
2017-11-19T20:52:48.897Z,5.80
2017-11-19T20:55:17.670Z,5.90
2017-11-19T20:57:45.581Z,5.60
2017-11-19T21:00:13.080Z,7.30
2017-11-19T21:02:41.801Z,5.80
2017-11-19T21:05:08.545Z,5.80
2017-11-19T21:07:35.353Z,5.90
2017-11-19T21:10:01.607Z,5.80
2017-11-19T21:12:28.408Z,5.80
2017-11-19T21:14:55.064Z,5.80
2017-11-19T21:17:21.779Z,5.80
2017-11-19T21:19:49.913Z,5.80
2017-11-19T21:22:16.278Z,5.80
2017-11-19T21:24:42.592Z,5.50
2017-11-19T21:27:11.759Z,5.70
2017-11-19T21:29:39.011Z,5.70
2017-11-19T21:32:05.211Z,5.80
2017-11-19T21:34:31.456Z,5.70
2017-11-19T21:36:57.719Z,5.70
2017-11-19T21:39:25.312Z,5.60
2017-11-19T21:41:51.836Z,5.60
2017-11-19T21:44:18.811Z,5.60
2017-11-19T21:46:46.207Z,5.60
2017-11-19T21:49:12.538Z,5.60
2017-11-19T21:51:38.783Z,5.70
2017-11-19T21:54:05.051Z,5.50
2017-11-19T21:56:31.651Z,5.60
2017-11-19T21:58:58.388Z,5.60
2017-11-19T22:01:24.625Z,5.40
2017-11-19T22:13:35.870Z,5.60
2017-11-19T22:16:02.529Z,5.60
2017-11-19T22:18:30.868Z,5.50
2017-11-19T22:20:57.100Z,5.50
2017-11-19T22:23:24.161Z,5.60
2017-11-19T22:25:50.406Z,5.70
2017-11-19T22:28:17.540Z,5.70
2017-11-19T22:30:43.793Z,5.70
2017-11-19T22:33:10.428Z,5.70
2017-11-19T22:35:36.697Z,5.70
2017-11-19T22:38:02.909Z,5.80
2017-11-19T22:40:29.864Z,5.80
2017-11-19T22:42:57.045Z,5.90
2017-11-19T22:45:23.761Z,6.00
2017-11-19T22:47:50.386Z,6.00
2017-11-19T22:50:17.332Z,6.00
2017-11-19T22:52:44.412Z,6.10
2017-11-19T22:55:11.830Z,5.90
2017-11-19T22:57:38.773Z,6.00
2017-11-19T23:00:06.601Z,6.00
2017-11-19T23:02:33.256Z,6.00
2017-11-19T23:04:59.452Z,5.90
2017-11-19T23:07:26.341Z,6.10
2017-11-19T23:09:53.331Z,5.80
2017-11-19T23:12:19.992Z,5.90
2017-11-19T23:14:46.199Z,5.80
2017-11-19T23:17:12.492Z,5.80
2017-11-19T23:19:38.693Z,5.90
2017-11-19T23:22:04.923Z,5.90
2017-11-19T23:24:31.983Z,5.90
2017-11-19T23:26:58.577Z,5.90
2017-11-19T23:29:24.800Z,5.80
2017-11-19T23:31:51.750Z,5.70
2017-11-19T23:34:18.309Z,5.70
2017-11-19T23:36:44.526Z,5.70
2017-11-19T23:39:10.733Z,5.80
2017-11-19T23:41:36.968Z,5.80
2017-11-19T23:44:03.164Z,5.70
2017-11-19T23:46:29.371Z,5.70
2017-11-19T23:48:55.904Z,5.70
2017-11-19T23:51:22.521Z,5.70
2017-11-19T23:53:48.720Z,5.70
2017-11-19T23:56:14.911Z,5.70
2017-11-19T23:58:41.521Z,5.70
